sensor_id;sensor_type;location;lat;lon;timestamp;pressure;altitude;pressure_sealevel;temperature;humidity
30302;BME280;17111;52.130;5.028;2023-04-16T00:00:37;102371.59;;;20.35;43.63
30302;BME280;17111;52.130;5.028;2023-04-16T00:03:03;102366.34;;;20.34;43.57
30302;BME280;17111;52.130;5.028;2023-04-16T00:05:30;102367.31;;;20.33;43.78
30302;BME280;17111;52.130;5.028;2023-04-16T00:07:57;102367.31;;;20.33;43.40
30302;BME280;17111;52.130;5.028;2023-04-16T00:10:23;102369.31;;;20.31;44.01
30302;BME280;17111;52.130;5.028;2023-04-16T00:12:50;102358.53;;;20.31;43.67
30302;BME280;17111;52.130;5.028;2023-04-16T00:15:16;102361.34;;;20.29;44.09
30302;BME280;17111;52.130;5.028;2023-04-16T00:17:43;102368.56;;;20.29;44.12
30302;BME280;17111;52.130;5.028;2023-04-16T00:20:10;102356.09;;;20.28;43.78
30302;BME280;17111;52.130;5.028;2023-04-16T00:22:37;102360.63;;;20.27;43.93
30302;BME280;17111;52.130;5.028;2023-04-16T00:25:04;102358.06;;;20.26;44.12
30302;BME280;17111;52.130;5.028;2023-04-16T00:27:30;102361.75;;;20.25;43.58
30302;BME280;17111;52.130;5.028;2023-04-16T00:29:57;102353.66;;;20.25;44.26
30302;BME280;17111;52.130;5.028;2023-04-16T00:32:24;102353.81;;;20.23;43.55
30302;BME280;17111;52.130;5.028;2023-04-16T00:34:50;102352.09;;;20.22;43.53
30302;BME280;17111;52.130;5.028;2023-04-16T00:37:17;102356.63;;;20.21;44.05
30302;BME280;17111;52.130;5.028;2023-04-16T00:39:43;102345.00;;;20.21;44.14
30302;BME280;17111;52.130;5.028;2023-04-16T00:42:10;102346.84;;;20.20;44.20
30302;BME280;17111;52.130;5.028;2023-04-16T00:44:36;102353.22;;;20.19;43.59
30302;BME280;17111;52.130;5.028;2023-04-16T00:47:03;102357.75;;;20.19;44.28
30302;BME280;17111;52.130;5.028;2023-04-16T00:49:30;102351.53;;;20.18;44.16
30302;BME280;17111;52.130;5.028;2023-04-16T00:51:57;102349.78;;;20.17;43.82
30302;BME280;17111;52.130;5.028;2023-04-16T00:54:24;102351.63;;;20.17;43.61
30302;BME280;17111;52.130;5.028;2023-04-16T00:56:50;102354.31;;;20.17;43.89
30302;BME280;17111;52.130;5.028;2023-04-16T00:59:18;102360.69;;;20.16;43.95
30302;BME280;17111;52.130;5.028;2023-04-16T01:01:45;102356.31;;;20.15;43.92
30302;BME280;17111;52.130;5.028;2023-04-16T01:04:11;102356.31;;;20.15;43.56
30302;BME280;17111;52.130;5.028;2023-04-16T01:06:38;102352.88;;;20.13;44.10
30302;BME280;17111;52.130;5.028;2023-04-16T01:09:05;102361.81;;;20.13;43.80
30302;BME280;17111;52.130;5.028;2023-04-16T01:11:31;102366.34;;;20.13;44.47
30302;BME280;17111;52.130;5.028;2023-04-16T01:13:58;102360.94;;;20.13;44.58
30302;BME280;17111;52.130;5.028;2023-04-16T01:16:25;102362.78;;;20.12;44.39
30302;BME280;17111;52.130;5.028;2023-04-16T01:18:52;102364.78;;;20.10;44.38
30302;BME280;17111;52.130;5.028;2023-04-16T01:21:18;102365.63;;;20.11;44.02
30302;BME280;17111;52.130;5.028;2023-04-16T01:23:45;102375.53;;;20.10;44.22
30302;BME280;17111;52.130;5.028;2023-04-16T01:26:11;102363.03;;;20.09;44.36
30302;BME280;17111;52.130;5.028;2023-04-16T01:28:39;102366.72;;;20.08;44.25
30302;BME280;17111;52.130;5.028;2023-04-16T01:31:05;102369.41;;;20.08;44.04
30302;BME280;17111;52.130;5.028;2023-04-16T01:33:32;102369.41;;;20.08;44.34
30302;BME280;17111;52.130;5.028;2023-04-16T01:35:58;102370.41;;;20.07;44.02
30302;BME280;17111;52.130;5.028;2023-04-16T01:38:25;102368.72;;;20.06;44.35
30302;BME280;17111;52.130;5.028;2023-04-16T01:40:56;102371.41;;;20.06;44.34
30302;BME280;17111;52.130;5.028;2023-04-16T01:43:25;102367.84;;;20.06;44.30
30302;BME280;17111;52.130;5.028;2023-04-16T01:46:06;102369.69;;;20.05;44.43
30302;BME280;17111;52.130;5.028;2023-04-16T01:48:36;102361.59;;;20.05;44.53
30302;BME280;17111;52.130;5.028;2023-04-16T01:51:03;102362.59;;;20.04;44.36
30302;BME280;17111;52.130;5.028;2023-04-16T01:53:30;102366.28;;;20.03;44.51
30302;BME280;17111;52.130;5.028;2023-04-16T01:55:56;102374.34;;;20.03;44.33
30302;BME280;17111;52.130;5.028;2023-04-16T01:58:23;102362.72;;;20.03;44.19
30302;BME280;17111;52.130;5.028;2023-04-16T02:00:50;102371.78;;;20.02;43.87
30302;BME280;17111;52.130;5.028;2023-04-16T02:03:16;102358.44;;;20.00;43.93
30302;BME280;17111;52.130;5.028;2023-04-16T02:05:44;102365.69;;;20.00;44.44
30302;BME280;17111;52.130;5.028;2023-04-16T02:08:10;102374.75;;;19.99;44.48
30302;BME280;17111;52.130;5.028;2023-04-16T02:10:37;102371.19;;;19.98;44.66
30302;BME280;17111;52.130;5.028;2023-04-16T02:13:03;102367.78;;;19.96;44.42
30302;BME280;17111;52.130;5.028;2023-04-16T02:15:30;102378.53;;;19.96;43.69
30302;BME280;17111;52.130;5.028;2023-04-16T02:17:56;102373.16;;;19.96;43.95
30302;BME280;17111;52.130;5.028;2023-04-16T02:20:23;102379.53;;;19.95;44.13
30302;BME280;17111;52.130;5.028;2023-04-16T02:22:50;102373.41;;;19.93;43.84
30302;BME280;17111;52.130;5.028;2023-04-16T02:25:16;102377.09;;;19.92;43.74
30302;BME280;17111;52.130;5.028;2023-04-16T02:27:43;102376.22;;;19.91;44.06
30302;BME280;17111;52.130;5.028;2023-04-16T02:30:10;102368.28;;;19.90;44.25
30302;BME280;17111;52.130;5.028;2023-04-16T02:32:36;102372.81;;;19.89;44.29
30302;BME280;17111;52.130;5.028;2023-04-16T02:35:03;102372.94;;;19.88;44.70
30302;BME280;17111;52.130;5.028;2023-04-16T02:37:30;102383.72;;;19.88;44.17
30302;BME280;17111;52.130;5.028;2023-04-16T02:39:56;102387.50;;;19.85;43.92
30302;BME280;17111;52.130;5.028;2023-04-16T02:42:23;102386.66;;;19.85;44.40
30302;BME280;17111;52.130;5.028;2023-04-16T02:44:50;102382.25;;;19.84;43.93
30302;BME280;17111;52.130;5.028;2023-04-16T02:47:16;102383.09;;;19.84;44.55
30302;BME280;17111;52.130;5.028;2023-04-16T02:49:43;102389.59;;;19.82;44.50
30302;BME280;17111;52.130;5.028;2023-04-16T02:52:09;102386.91;;;19.82;44.15
30302;BME280;17111;52.130;5.028;2023-04-16T02:54:36;102387.88;;;19.81;44.11
30302;BME280;17111;52.130;5.028;2023-04-16T02:57:02;102388.88;;;19.80;44.12
30302;BME280;17111;52.130;5.028;2023-04-16T02:59:29;102393.41;;;19.79;44.79
30302;BME280;17111;52.130;5.028;2023-04-16T03:01:56;102388.13;;;19.78;44.30
30302;BME280;17111;52.130;5.028;2023-04-16T03:04:22;102396.19;;;19.78;44.68
30302;BME280;17111;52.130;5.028;2023-04-16T03:06:49;102398.03;;;19.77;44.14
30302;BME280;17111;52.130;5.028;2023-04-16T03:09:15;102395.50;;;19.76;44.26
30302;BME280;17111;52.130;5.028;2023-04-16T03:11:42;102398.19;;;19.76;44.55
30302;BME280;17111;52.130;5.028;2023-04-16T03:14:09;102399.16;;;19.75;43.99
30302;BME280;17111;52.130;5.028;2023-04-16T03:16:35;102404.56;;;19.75;44.43
30302;BME280;17111;52.130;5.028;2023-04-16T03:19:02;102404.66;;;19.73;44.22
30302;BME280;17111;52.130;5.028;2023-04-16T03:21:28;102397.56;;;19.72;44.68
30302;BME280;17111;52.130;5.028;2023-04-16T03:23:55;102402.97;;;19.72;44.66
30302;BME280;17111;52.130;5.028;2023-04-16T03:26:22;102400.41;;;19.70;44.68
30302;BME280;17111;52.130;5.028;2023-04-16T03:28:49;102404.06;;;19.69;44.18
30302;BME280;17111;52.130;5.028;2023-04-16T03:31:15;102403.22;;;19.69;44.66
30302;BME280;17111;52.130;5.028;2023-04-16T03:33:42;102408.59;;;19.69;44.89
30302;BME280;17111;52.130;5.028;2023-04-16T03:36:08;102406.88;;;19.68;44.78
30302;BME280;17111;52.130;5.028;2023-04-16T03:38:35;102401.63;;;19.66;45.07
30302;BME280;17111;52.130;5.028;2023-04-16T03:41:02;102405.19;;;19.67;44.72
30302;BME280;17111;52.130;5.028;2023-04-16T03:43:28;102404.44;;;19.65;44.14
30302;BME280;17111;52.130;5.028;2023-04-16T03:45:55;102400.91;;;19.64;45.05
30302;BME280;17111;52.130;5.028;2023-04-16T03:48:22;102400.06;;;19.64;44.80
30302;BME280;17111;52.130;5.028;2023-04-16T03:50:49;102401.03;;;19.63;44.78
30302;BME280;17111;52.130;5.028;2023-04-16T03:53:15;102402.88;;;19.62;44.92
30302;BME280;17111;52.130;5.028;2023-04-16T03:55:42;102409.22;;;19.61;44.99
30302;BME280;17111;52.130;5.028;2023-04-16T03:58:08;102407.47;;;19.60;44.53
30302;BME280;17111;52.130;5.028;2023-04-16T04:00:35;102404.78;;;19.60;44.47
30302;BME280;17111;52.130;5.028;2023-04-16T04:03:02;102409.31;;;19.60;44.97
30302;BME280;17111;52.130;5.028;2023-04-16T04:05:28;102407.63;;;19.59;44.40
30302;BME280;17111;52.130;5.028;2023-04-16T04:07:55;102409.44;;;19.58;45.10
30302;BME280;17111;52.130;5.028;2023-04-16T04:10:22;102407.72;;;19.57;44.89
30302;BME280;17111;52.130;5.028;2023-04-16T04:12:48;102414.09;;;19.56;44.41
30302;BME280;17111;52.130;5.028;2023-04-16T04:15:15;102406.03;;;19.56;44.43
30302;BME280;17111;52.130;5.028;2023-04-16T04:17:41;102410.56;;;19.56;44.50
30302;BME280;17111;52.130;5.028;2023-04-16T04:20:09;102408.84;;;19.55;44.92
30302;BME280;17111;52.130;5.028;2023-04-16T04:22:35;102404.44;;;19.54;44.96
30302;BME280;17111;52.130;5.028;2023-04-16T04:25:02;102413.38;;;19.54;44.95
30302;BME280;17111;52.130;5.028;2023-04-16T04:27:29;102406.25;;;19.53;44.86
30302;BME280;17111;52.130;5.028;2023-04-16T04:29:55;102408.25;;;19.51;44.46
30302;BME280;17111;52.130;5.028;2023-04-16T04:32:22;102424.38;;;19.51;44.56
30302;BME280;17111;52.130;5.028;2023-04-16T04:34:48;102409.94;;;19.52;44.61
30302;BME280;17111;52.130;5.028;2023-04-16T04:37:15;102414.47;;;19.52;45.01
30302;BME280;17111;52.130;5.028;2023-04-16T04:39:42;102412.78;;;19.51;44.91
30302;BME280;17111;52.130;5.028;2023-04-16T04:42:08;102415.47;;;19.51;44.66
30302;BME280;17111;52.130;5.028;2023-04-16T04:44:35;102428.06;;;19.50;45.26
30302;BME280;17111;52.130;5.028;2023-04-16T04:47:01;102422.78;;;19.48;44.65
30302;BME280;17111;52.130;5.028;2023-04-16T04:49:28;102424.47;;;19.49;44.42
30302;BME280;17111;52.130;5.028;2023-04-16T04:51:56;102428.16;;;19.48;44.62
30302;BME280;17111;52.130;5.028;2023-04-16T04:54:22;102424.63;;;19.48;44.79
30302;BME280;17111;52.130;5.028;2023-04-16T04:56:49;102425.59;;;19.47;44.18
30302;BME280;17111;52.130;5.028;2023-04-16T04:59:21;102429.16;;;19.47;44.83
30302;BME280;17111;52.130;5.028;2023-04-16T05:01:48;102428.41;;;19.45;44.48
30302;BME280;17111;52.130;5.028;2023-04-16T05:04:15;102430.97;;;19.47;44.75
30302;BME280;17111;52.130;5.028;2023-04-16T05:06:43;102431.97;;;19.46;44.50
30302;BME280;17111;52.130;5.028;2023-04-16T05:09:10;102435.50;;;19.46;44.60
30302;BME280;17111;52.130;5.028;2023-04-16T05:11:37;102441.59;;;19.48;44.36
30302;BME280;17111;52.130;5.028;2023-04-16T05:14:04;102446.75;;;19.52;44.67
30302;BME280;17111;52.130;5.028;2023-04-16T05:16:31;102447.13;;;19.58;44.96
30302;BME280;17111;52.130;5.028;2023-04-16T05:18:57;102446.63;;;19.64;44.67
30302;BME280;17111;52.130;5.028;2023-04-16T05:21:24;102437.22;;;19.70;44.72
30302;BME280;17111;52.130;5.028;2023-04-16T05:23:51;102440.38;;;19.75;44.51
30302;BME280;17111;52.130;5.028;2023-04-16T05:26:18;102437.31;;;19.80;44.44
30302;BME280;17111;52.130;5.028;2023-04-16T05:28:45;102443.41;;;19.82;44.58
30302;BME280;17111;52.130;5.028;2023-04-16T05:31:11;102441.31;;;19.85;44.86
30302;BME280;17111;52.130;5.028;2023-04-16T05:33:38;102442.91;;;19.88;43.85
30302;BME280;17111;52.130;5.028;2023-04-16T05:36:04;102447.91;;;19.92;43.90
30302;BME280;17111;52.130;5.028;2023-04-16T05:38:31;102451.44;;;19.93;43.92
30302;BME280;17111;52.130;5.028;2023-04-16T05:40:58;102451.19;;;19.96;44.28
30302;BME280;17111;52.130;5.028;2023-04-16T05:43:24;102456.59;;;19.96;44.25
30302;BME280;17111;52.130;5.028;2023-04-16T05:45:51;102455.59;;;19.97;44.07
30302;BME280;17111;52.130;5.028;2023-04-16T05:48:17;102462.81;;;19.96;44.22
30302;BME280;17111;52.130;5.028;2023-04-16T05:50:45;102462.94;;;19.95;43.78
30302;BME280;17111;52.130;5.028;2023-04-16T05:53:12;102455.13;;;19.92;44.46
30302;BME280;17111;52.130;5.028;2023-04-16T05:55:39;102458.06;;;19.89;43.92
30302;BME280;17111;52.130;5.028;2023-04-16T05:58:06;102461.88;;;19.86;43.88
30302;BME280;17111;52.130;5.028;2023-04-16T06:00:32;102457.59;;;19.84;44.16
30302;BME280;17111;52.130;5.028;2023-04-16T06:02:59;102460.44;;;19.82;44.49
30302;BME280;17111;52.130;5.028;2023-04-16T06:05:26;102463.13;;;19.82;45.03
30302;BME280;17111;52.130;5.028;2023-04-16T06:07:53;102464.06;;;19.81;44.38
30302;BME280;17111;52.130;5.028;2023-04-16T06:10:19;102465.91;;;19.81;45.05
30302;BME280;17111;52.130;5.028;2023-04-16T06:12:46;102478.66;;;19.79;44.96
30302;BME280;17111;52.130;5.028;2023-04-16T06:15:13;102475.47;;;19.73;44.57
30302;BME280;17111;52.130;5.028;2023-04-16T06:17:39;102468.63;;;19.69;44.59
30302;BME280;17111;52.130;5.028;2023-04-16T06:20:06;102480.03;;;19.62;44.98
30302;BME280;17111;52.130;5.028;2023-04-16T06:22:33;102474.00;;;19.58;45.62
30302;BME280;17111;52.130;5.028;2023-04-16T06:25:00;102477.78;;;19.56;45.16
30302;BME280;17111;52.130;5.028;2023-04-16T06:27:26;102476.94;;;19.55;44.85
30302;BME280;17111;52.130;5.028;2023-04-16T06:29:53;102479.72;;;19.54;45.28
30302;BME280;17111;52.130;5.028;2023-04-16T06:32:19;102478.78;;;19.55;45.19
30302;BME280;17111;52.130;5.028;2023-04-16T06:34:46;102483.31;;;19.54;45.61
30302;BME280;17111;52.130;5.028;2023-04-16T06:37:13;102483.16;;;19.56;44.84
30302;BME280;17111;52.130;5.028;2023-04-16T06:39:40;102492.09;;;19.56;45.49
30302;BME280;17111;52.130;5.028;2023-04-16T06:42:06;102491.09;;;19.57;45.46
30302;BME280;17111;52.130;5.028;2023-04-16T06:44:34;102488.41;;;19.57;44.92
30302;BME280;17111;52.130;5.028;2023-04-16T06:47:00;102491.00;;;19.59;44.96
30302;BME280;17111;52.130;5.028;2023-04-16T06:49:27;102503.34;;;19.61;45.04
30302;BME280;17111;52.130;5.028;2023-04-16T06:51:54;102503.13;;;19.64;45.84
30302;BME280;17111;52.130;5.028;2023-04-16T06:54:21;102502.13;;;19.65;45.84
30302;BME280;17111;52.130;5.028;2023-04-16T06:56:48;102505.56;;;19.67;45.43
30302;BME280;17111;52.130;5.028;2023-04-16T06:59:14;102504.47;;;19.70;45.98
30302;BME280;17111;52.130;5.028;2023-04-16T07:01:41;102503.50;;;19.71;46.08
30302;BME280;17111;52.130;5.028;2023-04-16T07:04:08;102507.75;;;19.73;45.66
30302;BME280;17111;52.130;5.028;2023-04-16T07:06:34;102505.94;;;19.74;45.68
30302;BME280;17111;52.130;5.028;2023-04-16T07:09:01;102505.66;;;19.77;45.63
30302;BME280;17111;52.130;5.028;2023-04-16T07:11:27;102501.13;;;19.78;45.53
30302;BME280;17111;52.130;5.028;2023-04-16T07:13:54;102504.56;;;19.80;46.25
30302;BME280;17111;52.130;5.028;2023-04-16T07:16:22;102513.50;;;19.80;45.86
30302;BME280;17111;52.130;5.028;2023-04-16T07:18:49;102510.81;;;19.80;46.57
30302;BME280;17111;52.130;5.028;2023-04-16T07:21:15;102510.66;;;19.82;45.97
30302;BME280;17111;52.130;5.028;2023-04-16T07:23:42;102508.84;;;19.82;46.14
30302;BME280;17111;52.130;5.028;2023-04-16T07:26:08;102523.16;;;19.83;46.42
30302;BME280;17111;52.130;5.028;2023-04-16T07:28:36;102515.09;;;19.83;46.09
30302;BME280;17111;52.130;5.028;2023-04-16T07:31:03;102522.19;;;19.84;45.71
30302;BME280;17111;52.130;5.028;2023-04-16T07:33:30;102521.31;;;19.83;46.45
30302;BME280;17111;52.130;5.028;2023-04-16T07:35:56;102524.88;;;19.84;46.49
30302;BME280;17111;52.130;5.028;2023-04-16T07:38:23;102518.63;;;19.83;46.11
30302;BME280;17111;52.130;5.028;2023-04-16T07:40:49;102520.34;;;19.84;46.77
30302;BME280;17111;52.130;5.028;2023-04-16T07:43:16;102530.09;;;19.85;45.88
30302;BME280;17111;52.130;5.028;2023-04-16T07:45:43;102529.16;;;19.86;46.51
30302;BME280;17111;52.130;5.028;2023-04-16T07:48:09;102526.56;;;19.85;46.00
30302;BME280;17111;52.130;5.028;2023-04-16T07:50:36;102534.63;;;19.85;45.68
30302;BME280;17111;52.130;5.028;2023-04-16T07:53:03;102545.53;;;19.83;45.95
30302;BME280;17111;52.130;5.028;2023-04-16T07:55:31;102550.06;;;19.83;45.91
30302;BME280;17111;52.130;5.028;2023-04-16T07:57:57;102541.25;;;19.81;46.05
30302;BME280;17111;52.130;5.028;2023-04-16T08:00:24;102542.25;;;19.80;46.18
30302;BME280;17111;52.130;5.028;2023-04-16T08:02:51;102541.38;;;19.79;45.96
30302;BME280;17111;52.130;5.028;2023-04-16T08:05:18;102542.38;;;19.78;45.57
30302;BME280;17111;52.130;5.028;2023-04-16T08:07:45;102538.81;;;19.78;45.84
30302;BME280;17111;52.130;5.028;2023-04-16T08:10:11;102555.94;;;19.77;45.36
30302;BME280;17111;52.130;5.028;2023-04-16T08:12:38;102548.84;;;19.76;45.65
30302;BME280;17111;52.130;5.028;2023-04-16T08:15:05;102557.06;;;19.74;46.08
30302;BME280;17111;52.130;5.028;2023-04-16T08:17:32;102558.00;;;19.73;45.59
30302;BME280;17111;52.130;5.028;2023-04-16T08:20:00;102558.00;;;19.73;45.34
30302;BME280;17111;52.130;5.028;2023-04-16T08:22:27;102561.56;;;19.73;45.17
30302;BME280;17111;52.130;5.028;2023-04-16T08:24:53;102558.16;;;19.71;45.61
30302;BME280;17111;52.130;5.028;2023-04-16T08:27:20;102566.22;;;19.71;45.28
30302;BME280;17111;52.130;5.028;2023-04-16T08:29:47;102569.03;;;19.70;45.24
30302;BME280;17111;52.130;5.028;2023-04-16T08:32:13;102569.88;;;19.70;45.21
30302;BME280;17111;52.130;5.028;2023-04-16T08:34:40;102570.84;;;19.69;45.67
30302;BME280;17111;52.130;5.028;2023-04-16T08:37:07;102567.31;;;19.69;45.68
30302;BME280;17111;52.130;5.028;2023-04-16T08:39:34;102569.13;;;19.68;45.03
30302;BME280;17111;52.130;5.028;2023-04-16T08:42:01;102570.13;;;19.67;45.74
30302;BME280;17111;52.130;5.028;2023-04-16T08:44:31;102575.50;;;19.67;45.75
30302;BME280;17111;52.130;5.028;2023-04-16T08:46:59;102578.06;;;19.69;45.10
30302;BME280;17111;52.130;5.028;2023-04-16T08:49:28;102579.81;;;19.70;45.81
30302;BME280;17111;52.130;5.028;2023-04-16T08:51:55;102585.03;;;19.71;46.07
30302;BME280;17111;52.130;5.028;2023-04-16T08:54:38;102586.75;;;19.72;45.49
30302;BME280;17111;52.130;5.028;2023-04-16T08:57:10;102589.44;;;19.72;45.36
30302;BME280;17111;52.130;5.028;2023-04-16T08:59:39;102593.84;;;19.73;45.58
30302;BME280;17111;52.130;5.028;2023-04-16T09:02:05;102590.19;;;19.75;46.30
30302;BME280;17111;52.130;5.028;2023-04-16T09:04:32;102599.13;;;19.75;45.51
30302;BME280;17111;52.130;5.028;2023-04-16T09:07:01;102607.06;;;19.77;46.13
30302;BME280;17111;52.130;5.028;2023-04-16T09:09:30;102600.69;;;19.78;46.26
30302;BME280;17111;52.130;5.028;2023-04-16T09:12:00;102603.28;;;19.79;45.89
30302;BME280;17111;52.130;5.028;2023-04-16T09:14:26;102598.75;;;19.80;46.20
30302;BME280;17111;52.130;5.028;2023-04-16T09:16:54;102601.19;;;19.83;45.95
30302;BME280;17111;52.130;5.028;2023-04-16T09:19:22;102602.91;;;19.84;46.25
30302;BME280;17111;52.130;5.028;2023-04-16T09:21:49;102596.44;;;19.86;46.20
30302;BME280;17111;52.130;5.028;2023-04-16T09:24:17;102599.97;;;19.87;45.85
30302;BME280;17111;52.130;5.028;2023-04-16T09:26:44;102603.38;;;19.89;46.22
30302;BME280;17111;52.130;5.028;2023-04-16T09:29:10;102601.53;;;19.89;46.04
30302;BME280;17111;52.130;5.028;2023-04-16T09:31:37;102603.13;;;19.92;45.75
30302;BME280;17111;52.130;5.028;2023-04-16T09:34:06;102606.69;;;19.92;46.12
30302;BME280;17111;52.130;5.028;2023-04-16T09:36:34;102611.09;;;19.93;46.09
30302;BME280;17111;52.130;5.028;2023-04-16T09:39:02;102612.69;;;19.96;46.47
30302;BME280;17111;52.130;5.028;2023-04-16T09:41:31;102620.63;;;19.97;45.79
30302;BME280;17111;52.130;5.028;2023-04-16T09:44:02;102622.47;;;19.97;46.19
30302;BME280;17111;52.130;5.028;2023-04-16T09:46:34;102623.44;;;19.96;46.18
30302;BME280;17111;52.130;5.028;2023-04-16T09:49:18;102629.81;;;19.95;46.46
30302;BME280;17111;52.130;5.028;2023-04-16T09:51:47;102626.28;;;19.94;46.22
30302;BME280;17111;52.130;5.028;2023-04-16T09:54:15;102627.13;;;19.95;45.80
30302;BME280;17111;52.130;5.028;2023-04-16T09:56:43;102631.75;;;19.93;45.87
30302;BME280;17111;52.130;5.028;2023-04-16T09:59:20;102626.50;;;19.91;45.46
30302;BME280;17111;52.130;5.028;2023-04-16T10:01:48;102638.00;;;19.93;46.03
30302;BME280;17111;52.130;5.028;2023-04-16T10:04:15;102637.13;;;19.93;45.96
30302;BME280;17111;52.130;5.028;2023-04-16T10:06:42;102626.38;;;19.93;46.03
30302;BME280;17111;52.130;5.028;2023-04-16T10:09:09;102635.31;;;19.93;46.00
30302;BME280;17111;52.130;5.028;2023-04-16T10:11:36;102633.50;;;19.94;45.59
30302;BME280;17111;52.130;5.028;2023-04-16T10:14:03;102633.50;;;19.94;45.63
30302;BME280;17111;52.130;5.028;2023-04-16T10:16:29;102630.66;;;19.95;46.16
30302;BME280;17111;52.130;5.028;2023-04-16T10:18:57;102632.38;;;19.96;45.91
30302;BME280;17111;52.130;5.028;2023-04-16T10:21:24;102638.59;;;19.97;46.19
30302;BME280;17111;52.130;5.028;2023-04-16T10:23:59;102642.16;;;19.97;46.26
30302;BME280;17111;52.130;5.028;2023-04-16T10:26:26;102637.66;;;19.98;45.64
30302;BME280;17111;52.130;5.028;2023-04-16T10:28:55;102646.56;;;19.99;46.01
30302;BME280;17111;52.130;5.028;2023-04-16T10:31:24;102642.03;;;19.99;45.61
30302;BME280;17111;52.130;5.028;2023-04-16T10:33:51;102644.75;;;19.99;46.27
30302;BME280;17111;52.130;5.028;2023-04-16T10:36:24;102645.59;;;20.00;46.16
30302;BME280;17111;52.130;5.028;2023-04-16T10:38:58;102644.59;;;20.01;46.25
30302;BME280;17111;52.130;5.028;2023-04-16T10:41:26;102651.59;;;20.03;46.44
30302;BME280;17111;52.130;5.028;2023-04-16T10:44:03;102639.97;;;20.03;46.55
30302;BME280;17111;52.130;5.028;2023-04-16T10:46:41;102638.13;;;20.03;46.60
30302;BME280;17111;52.130;5.028;2023-04-16T10:49:16;102640.94;;;20.02;46.26
30302;BME280;17111;52.130;5.028;2023-04-16T10:51:55;102649.13;;;20.00;46.11
30302;BME280;17111;52.130;5.028;2023-04-16T10:54:27;102641.19;;;19.99;46.08
30302;BME280;17111;52.130;5.028;2023-04-16T10:56:58;102642.16;;;19.97;46.03
30302;BME280;17111;52.130;5.028;2023-04-16T10:59:30;102654.75;;;19.97;46.19
30302;BME280;17111;52.130;5.028;2023-04-16T11:01:58;102649.38;;;19.97;46.00
30302;BME280;17111;52.130;5.028;2023-04-16T11:04:31;102653.91;;;19.96;45.99
30302;BME280;17111;52.130;5.028;2023-04-16T11:12:40;102650.34;;;19.96;46.03
30302;BME280;17111;52.130;5.028;2023-04-16T11:15:11;102647.53;;;19.97;46.25
30302;BME280;17111;52.130;5.028;2023-04-16T11:17:43;102651.22;;;19.96;45.87
30302;BME280;17111;52.130;5.028;2023-04-16T11:20:24;102646.69;;;19.97;45.81
30302;BME280;17111;52.130;5.028;2023-04-16T11:22:55;102651.09;;;19.98;46.28
30302;BME280;17111;52.130;5.028;2023-04-16T11:25:23;102654.66;;;19.99;46.26
30302;BME280;17111;52.130;5.028;2023-04-16T11:27:51;102651.09;;;19.98;45.84
30302;BME280;17111;52.130;5.028;2023-04-16T11:30:26;102652.81;;;19.99;45.68
30302;BME280;17111;52.130;5.028;2023-04-16T11:32:53;102651.97;;;19.99;45.96
30302;BME280;17111;52.130;5.028;2023-04-16T11:35:20;102651.81;;;20.00;45.99
30302;BME280;17111;52.130;5.028;2023-04-16T11:37:47;102652.69;;;20.01;46.32
30302;BME280;17111;52.130;5.028;2023-04-16T11:40:14;102659.66;;;20.03;46.36
30302;BME280;17111;52.130;5.028;2023-04-16T11:42:41;102656.00;;;20.04;46.59
30302;BME280;17111;52.130;5.028;2023-04-16T11:45:09;102661.38;;;20.04;46.28
30302;BME280;17111;52.130;5.028;2023-04-16T11:47:49;102658.69;;;20.04;46.46
30302;BME280;17111;52.130;5.028;2023-04-16T11:50:24;102654.16;;;20.05;45.84
30302;BME280;17111;52.130;5.028;2023-04-16T11:52:52;102661.22;;;20.06;45.99
30302;BME280;17111;52.130;5.028;2023-04-16T11:55:20;102653.16;;;20.06;46.17
30302;BME280;17111;52.130;5.028;2023-04-16T11:57:47;102662.13;;;20.06;46.38
30302;BME280;17111;52.130;5.028;2023-04-16T12:00:14;102659.44;;;20.06;45.92
30302;BME280;17111;52.130;5.028;2023-04-16T12:02:48;102658.44;;;20.07;46.18
30302;BME280;17111;52.130;5.028;2023-04-16T12:05:33;102668.34;;;20.07;45.95
30302;BME280;17111;52.130;5.028;2023-04-16T12:08:02;102663.59;;;20.10;46.09
30302;BME280;17111;52.130;5.028;2023-04-16T12:10:30;102667.13;;;20.11;46.33
30302;BME280;17111;52.130;5.028;2023-04-16T12:15:48;102669.69;;;20.12;46.11
30302;BME280;17111;52.130;5.028;2023-04-16T12:18:19;102664.31;;;20.12;45.70
30302;BME280;17111;52.130;5.028;2023-04-16T12:20:46;102673.59;;;20.08;45.59
30302;BME280;17111;52.130;5.028;2023-04-16T12:23:27;102665.06;;;20.03;46.34
30302;BME280;17111;52.130;5.028;2023-04-16T12:25:55;102677.88;;;20.00;46.11
30302;BME280;17111;52.130;5.028;2023-04-16T12:28:35;102673.72;;;19.95;46.52
30302;BME280;17111;52.130;5.028;2023-04-16T12:31:04;102664.91;;;19.93;46.56
30302;BME280;17111;52.130;5.028;2023-04-16T12:33:31;102664.91;;;19.93;46.02
30302;BME280;17111;52.130;5.028;2023-04-16T12:35:58;102666.50;;;19.96;45.79
30302;BME280;17111;52.130;5.028;2023-04-16T12:38:25;102658.19;;;19.99;46.62
30302;BME280;17111;52.130;5.028;2023-04-16T12:40:52;102661.50;;;20.03;46.56
30302;BME280;17111;52.130;5.028;2023-04-16T12:43:22;102665.66;;;20.07;46.70
30302;BME280;17111;52.130;5.028;2023-04-16T12:45:49;102656.38;;;20.11;46.56
30302;BME280;17111;52.130;5.028;2023-04-16T12:48:15;102655.00;;;20.16;46.57
30302;BME280;17111;52.130;5.028;2023-04-16T12:50:42;102666.13;;;20.23;46.71
30302;BME280;17111;52.130;5.028;2023-04-16T12:53:10;102666.75;;;20.27;47.23
30302;BME280;17111;52.130;5.028;2023-04-16T12:55:37;102667.22;;;20.32;47.26
30302;BME280;17111;52.130;5.028;2023-04-16T12:58:03;102664.28;;;20.35;47.68
30302;BME280;17111;52.130;5.028;2023-04-16T13:00:30;102665.00;;;20.37;47.64